LGKO Airport Information

Runway Information
Runway 14 Length 7841 ft width 148 ft Elevation 412 ft Threshold N/A Heading 148
Runway 32 Length 7841 ft Width 148 ft Elevation 373 ft Threshold N/A Heading 328
Airport Frequencies
Type A/G Name IPPOKRATIS Frequency 563.7 MHZ
Type APP Name APP Frequency 119.95 MHZ
Type ATIS Name ATIS Frequency 126.95 MHZ
Type TWR Name IPPOKRATIS Frequency 121.05 MHZ
Airport Navaids
Type VOR-DME Name Kos Frequency 109000 KHZ
Type NDB Name Kos Frequency 311 KHZ
Airport Weather Information & NOTAM
ADDS - METARS form results

(0332 UTC 06 December 2022)
Data provider http://aviationweather.gov/metar/data/
 
METAR text: LGKO 060320Z 35008KT 9999 SCT020 15/08 Q1019
Conditions at: LGKO (KOS AIRPORT , GR) observed 0320 UTC 06 December 2022
Temperature: 15.0°C (59°F)
Dewpoint: 8.0°C (46°F) [RH = 63%]
Pressure (altimeter): 30.09 inches Hg (1019.0 mb)
Winds: from the N (350 degrees) at 9 MPH (8 knots; 4.1 m/s)
Visibility: 6 or more miles (10+ km)
Ceiling: at least 12,000 feet AGL
Clouds: scattered clouds at 2000 feet AGL
Weather: no significant weather observed at this time

METAR text: LGKO 060250Z 35008KT 9999 SCT020 15/08 Q1019
Conditions at: LGKO (KOS AIRPORT , GR) observed 0250 UTC 06 December 2022
Temperature: 15.0°C (59°F)
Dewpoint: 8.0°C (46°F) [RH = 63%]
Pressure (altimeter): 30.09 inches Hg (1019.0 mb)
Winds: from the N (350 degrees) at 9 MPH (8 knots; 4.1 m/s)
Visibility: 6 or more miles (10+ km)
Ceiling: at least 12,000 feet AGL
Clouds: scattered clouds at 2000 feet AGL
Weather: no significant weather observed at this time

Forecast for: LGKO (KOS AIRPORT , GR)
Text: TAF LGKO 052300Z 0600/0624 34015KT 9999 SCT020
Forecast period: 0000 UTC 06 December 2022 to 0000 UTC 07 December 2022
Forecast type: FROM: standard forecast or significant change
Winds: from the NNW (340 degrees) at 17 MPH (15 knots; 7.7 m/s)
Visibility: 6 or more miles (10+ km)
Ceiling: at least 12,000 feet AGL
Clouds: scattered clouds at 2000 feet AGL
Weather: no significant weather forecast for this period